sensor_id;sensor_type;location;lat;lon;timestamp;pressure;altitude;pressure_sealevel;temperature;humidity
11643;BME280;5877;50.930;6.918;2023-05-23T00:01:39;101108.56;;;15.44;92.54
11643;BME280;5877;50.930;6.918;2023-05-23T00:06:31;101069.38;;;15.06;93.45
11643;BME280;5877;50.930;6.918;2023-05-23T00:11:26;101125.50;;;15.32;94.87
11643;BME280;5877;50.930;6.918;2023-05-23T00:16:20;101099.84;;;15.32;93.07
11643;BME280;5877;50.930;6.918;2023-05-23T00:21:14;101125.25;;;15.10;97.39
11643;BME280;5877;50.930;6.918;2023-05-23T00:26:08;101031.16;;;14.44;98.97
11643;BME280;5877;50.930;6.918;2023-05-23T00:31:04;101122.91;;;14.90;99.75
11643;BME280;5877;50.930;6.918;2023-05-23T00:35:58;100944.81;;;14.03;96.23
11643;BME280;5877;50.930;6.918;2023-05-23T00:40:53;100986.44;;;13.89;100.00
11643;BME280;5877;50.930;6.918;2023-05-23T00:45:46;100810.56;;;12.63;100.00
11643;BME280;5877;50.930;6.918;2023-05-23T00:50:39;101121.19;;;14.84;100.00
11643;BME280;5877;50.930;6.918;2023-05-23T00:55:32;101136.88;;;15.20;98.81
11643;BME280;5877;50.930;6.918;2023-05-23T01:00:24;101132.63;;;15.43;94.06
11643;BME280;5877;50.930;6.918;2023-05-23T01:05:19;101073.16;;;15.34;90.34
11643;BME280;5877;50.930;6.918;2023-05-23T01:10:19;101129.00;;;15.84;88.17
11643;BME280;5877;50.930;6.918;2023-05-23T01:15:14;101096.47;;;15.72;85.36
11643;BME280;5877;50.930;6.918;2023-05-23T01:20:31;101123.91;;;15.94;84.72
11643;BME280;5877;50.930;6.918;2023-05-23T01:25:43;101144.03;;;16.07;84.80
11643;BME280;5877;50.930;6.918;2023-05-23T01:30:39;101012.09;;;15.35;84.55
11643;BME280;5877;50.930;6.918;2023-05-23T01:35:32;100998.44;;;15.26;85.25
11643;BME280;5877;50.930;6.918;2023-05-23T01:40:25;101133.06;;;16.15;86.01
11643;BME280;5877;50.930;6.918;2023-05-23T01:45:17;100982.47;;;15.10;85.15
11643;BME280;5877;50.930;6.918;2023-05-23T01:50:12;101048.06;;;15.48;84.03
11643;BME280;5877;50.930;6.918;2023-05-23T01:55:06;101155.75;;;16.11;81.76
11643;BME280;5877;50.930;6.918;2023-05-23T02:00:02;101046.03;;;15.26;79.89
11643;BME280;5877;50.930;6.918;2023-05-23T02:05:03;101143.03;;;15.84;79.11
11643;BME280;5877;50.930;6.918;2023-05-23T02:09:57;101167.78;;;15.90;77.91
11643;BME280;5877;50.930;6.918;2023-05-23T02:14:52;101140.31;;;15.68;77.19
11643;BME280;5877;50.930;6.918;2023-05-23T02:19:46;101124.88;;;15.65;76.75
11643;BME280;5877;50.930;6.918;2023-05-23T02:24:38;101123.75;;;15.61;76.21
11643;BME280;5877;50.930;6.918;2023-05-23T02:29:31;101128.25;;;15.60;76.07
11643;BME280;5877;50.930;6.918;2023-05-23T02:34:24;101115.34;;;15.52;75.92
11643;BME280;5877;50.930;6.918;2023-05-23T02:39:16;101193.56;;;15.95;76.43
11643;BME280;5877;50.930;6.918;2023-05-23T02:44:10;101188.84;;;15.97;76.03
11643;BME280;5877;50.930;6.918;2023-05-23T02:49:03;101186.53;;;16.00;76.26
11643;BME280;5877;50.930;6.918;2023-05-23T02:53:56;101137.19;;;15.71;75.71
11643;BME280;5877;50.930;6.918;2023-05-23T02:58:53;101152.50;;;15.69;76.92
11643;BME280;5877;50.930;6.918;2023-05-23T03:03:45;101163.31;;;15.79;77.69
11643;BME280;5877;50.930;6.918;2023-05-23T03:08:37;101154.47;;;15.62;78.38
11643;BME280;5877;50.930;6.918;2023-05-23T03:13:29;101118.00;;;15.52;78.06
11643;BME280;5877;50.930;6.918;2023-05-23T03:18:23;101138.13;;;15.53;78.87
11643;BME280;5877;50.930;6.918;2023-05-23T03:23:15;101181.03;;;15.78;79.13
11643;BME280;5877;50.930;6.918;2023-05-23T03:28:09;101152.72;;;15.67;79.80
11643;BME280;5877;50.930;6.918;2023-05-23T03:33:03;101210.47;;;15.94;79.69
11643;BME280;5877;50.930;6.918;2023-05-23T03:37:55;101179.88;;;15.74;81.42
11643;BME280;5877;50.930;6.918;2023-05-23T03:42:48;101197.16;;;15.65;84.93
11643;BME280;5877;50.930;6.918;2023-05-23T03:47:52;101162.84;;;15.23;86.45
11643;BME280;5877;50.930;6.918;2023-05-23T03:52:44;101171.38;;;15.25;86.61
11643;BME280;5877;50.930;6.918;2023-05-23T03:57:37;101194.63;;;15.47;85.40
11643;BME280;5877;50.930;6.918;2023-05-23T04:02:29;101213.16;;;15.58;86.02
11643;BME280;5877;50.930;6.918;2023-05-23T04:07:22;101183.09;;;15.41;84.17
11643;BME280;5877;50.930;6.918;2023-05-23T04:12:18;101142.63;;;15.17;82.49
11643;BME280;5877;50.930;6.918;2023-05-23T04:17:11;101103.38;;;14.91;81.47
11643;BME280;5877;50.930;6.918;2023-05-23T04:22:04;101112.25;;;14.97;80.20
11643;BME280;5877;50.930;6.918;2023-05-23T04:26:56;101143.66;;;15.16;78.90
11643;BME280;5877;50.930;6.918;2023-05-23T04:31:49;101220.38;;;15.63;79.21
11643;BME280;5877;50.930;6.918;2023-05-23T04:36:42;101211.06;;;15.61;79.18
11643;BME280;5877;50.930;6.918;2023-05-23T04:41:38;101167.56;;;15.33;78.87
11643;BME280;5877;50.930;6.918;2023-05-23T04:47:03;101244.31;;;15.68;79.84
11643;BME280;5877;50.930;6.918;2023-05-23T04:52:25;101235.34;;;15.69;79.55
11643;BME280;5877;50.930;6.918;2023-05-23T04:57:19;101249.16;;;15.71;79.93
11643;BME280;5877;50.930;6.918;2023-05-23T05:02:11;101178.25;;;15.26;80.35
11643;BME280;5877;50.930;6.918;2023-05-23T05:07:29;101253.88;;;15.69;80.39
11643;BME280;5877;50.930;6.918;2023-05-23T05:12:22;101229.59;;;15.61;80.18
11643;BME280;5877;50.930;6.918;2023-05-23T05:17:15;101160.19;;;15.12;80.05
11643;BME280;5877;50.930;6.918;2023-05-23T05:22:30;101192.88;;;15.29;79.39
11643;BME280;5877;50.930;6.918;2023-05-23T05:27:24;101253.97;;;15.63;79.33
11643;BME280;5877;50.930;6.918;2023-05-23T05:32:18;101168.69;;;15.14;78.78
11643;BME280;5877;50.930;6.918;2023-05-23T05:37:13;101270.34;;;15.83;79.04
11643;BME280;5877;50.930;6.918;2023-05-23T05:42:06;101271.72;;;15.85;78.74
11643;BME280;5877;50.930;6.918;2023-05-23T05:46:59;101219.69;;;15.56;78.47
11643;BME280;5877;50.930;6.918;2023-05-23T05:51:52;101255.50;;;15.82;78.36
11643;BME280;5877;50.930;6.918;2023-05-23T05:56:46;101285.66;;;15.81;79.34
11643;BME280;5877;50.930;6.918;2023-05-23T06:01:38;101202.19;;;15.32;79.21
11643;BME280;5877;50.930;6.918;2023-05-23T06:06:46;101271.72;;;15.85;79.04
11643;BME280;5877;50.930;6.918;2023-05-23T06:11:39;101199.56;;;15.43;78.79
11643;BME280;5877;50.930;6.918;2023-05-23T06:16:32;101253.19;;;15.74;78.58
11643;BME280;5877;50.930;6.918;2023-05-23T06:21:26;101197.25;;;15.35;78.59
11643;BME280;5877;50.930;6.918;2023-05-23T06:26:18;101212.09;;;15.48;78.26
11643;BME280;5877;50.930;6.918;2023-05-23T06:31:11;101270.44;;;15.76;79.68
11643;BME280;5877;50.930;6.918;2023-05-23T06:36:03;101252.72;;;15.77;78.82
11643;BME280;5877;50.930;6.918;2023-05-23T06:40:56;101240.41;;;15.71;77.36
11643;BME280;5877;50.930;6.918;2023-05-23T06:45:49;101173.88;;;15.09;78.43
11643;BME280;5877;50.930;6.918;2023-05-23T06:50:42;101316.38;;;16.05;78.88
11643;BME280;5877;50.930;6.918;2023-05-23T06:55:35;101265.38;;;15.75;78.33
11643;BME280;5877;50.930;6.918;2023-05-23T07:00:30;101293.59;;;15.93;77.93
11643;BME280;5877;50.930;6.918;2023-05-23T07:05:45;101322.31;;;16.71;73.43
11643;BME280;5877;50.930;6.918;2023-05-23T07:10:41;101287.72;;;16.77;70.87
11643;BME280;5877;50.930;6.918;2023-05-23T07:15:53;101331.03;;;17.23;68.48
11643;BME280;5877;50.930;6.918;2023-05-23T07:20:45;101257.56;;;16.55;69.16
11643;BME280;5877;50.930;6.918;2023-05-23T07:25:40;101213.13;;;16.45;69.43
11643;BME280;5877;50.930;6.918;2023-05-23T07:30:59;101323.31;;;16.93;70.66
11643;BME280;5877;50.930;6.918;2023-05-23T07:35:52;101358.59;;;16.94;71.48
11643;BME280;5877;50.930;6.918;2023-05-23T07:40:44;101265.72;;;16.13;72.42
11643;BME280;5877;50.930;6.918;2023-05-23T07:45:58;101357.69;;;16.76;71.98
11643;BME280;5877;50.930;6.918;2023-05-23T07:50:52;101280.56;;;16.14;72.80
11643;BME280;5877;50.930;6.918;2023-05-23T07:55:47;101370.81;;;16.83;70.41
11643;BME280;5877;50.930;6.918;2023-05-23T08:00:40;101358.25;;;16.90;70.88
11643;BME280;5877;50.930;6.918;2023-05-23T08:05:46;101349.63;;;16.83;70.44
11643;BME280;5877;50.930;6.918;2023-05-23T08:10:38;101360.28;;;17.00;69.48
11643;BME280;5877;50.930;6.918;2023-05-23T08:15:36;101361.38;;;16.87;68.28
11643;BME280;5877;50.930;6.918;2023-05-23T08:20:38;101332.69;;;16.61;68.87
11643;BME280;5877;50.930;6.918;2023-05-23T08:25:33;101380.91;;;17.09;68.19
11643;BME280;5877;50.930;6.918;2023-05-23T08:30:26;101381.72;;;17.10;68.56
11643;BME280;5877;50.930;6.918;2023-05-23T08:35:23;101393.19;;;16.87;68.72
11643;BME280;5877;50.930;6.918;2023-05-23T08:40:20;101311.19;;;16.34;69.10
11643;BME280;5877;50.930;6.918;2023-05-23T08:45:26;101283.91;;;16.10;70.25
11643;BME280;5877;50.930;6.918;2023-05-23T08:50:22;101306.25;;;16.14;71.57
11643;BME280;5877;50.930;6.918;2023-05-23T08:55:18;101350.25;;;16.15;72.66
11643;BME280;5877;50.930;6.918;2023-05-23T09:00:12;101367.41;;;16.12;73.04
11643;BME280;5877;50.930;6.918;2023-05-23T09:05:06;101382.72;;;16.34;72.09
11643;BME280;5877;50.930;6.918;2023-05-23T09:10:01;101329.06;;;16.03;71.15
11643;BME280;5877;50.930;6.918;2023-05-23T09:14:54;101403.59;;;16.65;69.70
11643;BME280;5877;50.930;6.918;2023-05-23T09:19:49;101362.91;;;16.24;69.59
11643;BME280;5877;50.930;6.918;2023-05-23T09:24:51;101447.69;;;16.48;72.32
11643;BME280;5877;50.930;6.918;2023-05-23T09:29:44;101443.16;;;16.13;74.49
11643;BME280;5877;50.930;6.918;2023-05-23T09:34:54;101429.84;;;15.78;77.81
11643;BME280;5877;50.930;6.918;2023-05-23T09:39:49;101455.16;;;15.74;80.03
11643;BME280;5877;50.930;6.918;2023-05-23T09:44:42;101420.22;;;15.54;76.87
11643;BME280;5877;50.930;6.918;2023-05-23T09:49:37;101366.44;;;15.12;76.53
11643;BME280;5877;50.930;6.918;2023-05-23T09:54:30;101447.28;;;15.38;75.05
11643;BME280;5877;50.930;6.918;2023-05-23T09:59:23;101345.09;;;14.77;75.44
11643;BME280;5877;50.930;6.918;2023-05-23T10:04:20;101357.66;;;14.81;75.72
11643;BME280;5877;50.930;6.918;2023-05-23T10:09:16;101370.72;;;15.43;72.79
11643;BME280;5877;50.930;6.918;2023-05-23T10:14:11;101390.16;;;15.90;69.76
11643;BME280;5877;50.930;6.918;2023-05-23T10:19:51;101459.22;;;16.53;66.50
11643;BME280;5877;50.930;6.918;2023-05-23T10:24:47;101366.59;;;16.35;65.21
11643;BME280;5877;50.930;6.918;2023-05-23T10:29:39;101449.13;;;17.94;60.71
11643;BME280;5877;50.930;6.918;2023-05-23T10:34:40;101410.69;;;18.35;56.69
11643;BME280;5877;50.930;6.918;2023-05-23T10:45:17;101509.50;;;17.70;59.04
11643;BME280;5877;50.930;6.918;2023-05-23T10:50:13;101519.31;;;17.98;57.51
11643;BME280;5877;50.930;6.918;2023-05-23T10:55:15;101389.16;;;16.84;58.36
11643;BME280;5877;50.930;6.918;2023-05-23T11:00:15;101522.50;;;17.83;57.57
11643;BME280;5877;50.930;6.918;2023-05-23T11:05:17;101379.72;;;16.53;58.43
11643;BME280;5877;50.930;6.918;2023-05-23T11:10:12;101422.13;;;16.42;60.24
11643;BME280;5877;50.930;6.918;2023-05-23T11:15:19;101526.81;;;16.74;60.24
11643;BME280;5877;50.930;6.918;2023-05-23T11:20:14;101526.34;;;17.12;58.88
11643;BME280;5877;50.930;6.918;2023-05-23T11:25:09;101437.94;;;16.72;57.76
11643;BME280;5877;50.930;6.918;2023-05-23T11:35:05;101363.91;;;15.88;57.92
11643;BME280;5877;50.930;6.918;2023-05-23T11:45:23;101335.84;;;16.22;55.45
11643;BME280;5877;50.930;6.918;2023-05-23T11:50:17;101405.66;;;17.55;52.53
11643;BME280;5877;50.930;6.918;2023-05-23T11:55:13;101427.41;;;18.69;49.25
11643;BME280;5877;50.930;6.918;2023-05-23T12:00:07;101521.78;;;20.47;46.78
11643;BME280;5877;50.930;6.918;2023-05-23T12:05:10;101491.19;;;20.54;45.60
11643;BME280;5877;50.930;6.918;2023-05-23T12:10:15;101480.69;;;19.84;46.29
11643;BME280;5877;50.930;6.918;2023-05-23T12:15:09;101488.38;;;18.93;47.95
11643;BME280;5877;50.930;6.918;2023-05-23T12:20:04;101368.72;;;18.37;47.53
11643;BME280;5877;50.930;6.918;2023-05-23T12:24:58;101528.06;;;20.35;44.69
11643;BME280;5877;50.930;6.918;2023-05-23T12:30:06;101481.59;;;20.26;44.06
11643;BME280;5877;50.930;6.918;2023-05-23T12:35:00;101526.78;;;19.40;46.80
11643;BME280;5877;50.930;6.918;2023-05-23T12:39:54;101480.66;;;18.91;47.47
11643;BME280;5877;50.930;6.918;2023-05-23T12:44:51;101361.19;;;18.68;45.44
11643;BME280;5877;50.930;6.918;2023-05-23T12:49:50;101370.94;;;18.84;44.22
11643;BME280;5877;50.930;6.918;2023-05-23T12:54:57;101404.25;;;18.87;44.14
11643;BME280;5877;50.930;6.918;2023-05-23T12:59:52;101539.22;;;19.52;44.88
11643;BME280;5877;50.930;6.918;2023-05-23T13:04:44;101482.38;;;18.64;45.98
11643;BME280;5877;50.930;6.918;2023-05-23T13:09:37;101358.88;;;17.82;46.01
11643;BME280;5877;50.930;6.918;2023-05-23T13:14:30;101380.53;;;18.46;43.80
11643;BME280;5877;50.930;6.918;2023-05-23T13:19:24;101545.50;;;19.89;42.99
11643;BME280;5877;50.930;6.918;2023-05-23T13:24:18;101421.53;;;19.82;42.20
11643;BME280;5877;50.930;6.918;2023-05-23T13:29:12;101542.47;;;20.34;42.28
11643;BME280;5877;50.930;6.918;2023-05-23T13:34:04;101458.81;;;20.08;42.29
11643;BME280;5877;50.930;6.918;2023-05-23T13:38:58;101534.88;;;20.90;40.66
11643;BME280;5877;50.930;6.918;2023-05-23T13:43:52;101416.59;;;19.95;41.60
11643;BME280;5877;50.930;6.918;2023-05-23T13:48:46;101539.84;;;21.19;40.91
11643;BME280;5877;50.930;6.918;2023-05-23T13:53:40;101538.16;;;21.02;39.19
11643;BME280;5877;50.930;6.918;2023-05-23T13:58:51;101501.03;;;21.01;37.52
11643;BME280;5877;50.930;6.918;2023-05-23T14:03:47;101538.25;;;20.70;37.46
11643;BME280;5877;50.930;6.918;2023-05-23T14:08:39;101467.00;;;20.02;37.47
11643;BME280;5877;50.930;6.918;2023-05-23T14:13:32;101449.63;;;19.67;37.68
11643;BME280;5877;50.930;6.918;2023-05-23T14:18:26;101507.06;;;20.12;37.79
11643;BME280;5877;50.930;6.918;2023-05-23T14:23:19;101482.03;;;20.13;38.25
11643;BME280;5877;50.930;6.918;2023-05-23T14:28:12;101534.19;;;20.63;36.91
11643;BME280;5877;50.930;6.918;2023-05-23T14:33:04;101532.22;;;19.94;38.26
11643;BME280;5877;50.930;6.918;2023-05-23T14:38:01;101477.97;;;20.37;37.37
11643;BME280;5877;50.930;6.918;2023-05-23T14:42:55;101434.22;;;20.01;37.03
11643;BME280;5877;50.930;6.918;2023-05-23T14:47:49;101398.38;;;19.55;37.25
11643;BME280;5877;50.930;6.918;2023-05-23T14:52:42;101512.47;;;20.49;37.21
11643;BME280;5877;50.930;6.918;2023-05-23T14:57:35;101467.78;;;20.66;35.57
11643;BME280;5877;50.930;6.918;2023-05-23T15:02:31;101425.16;;;20.82;35.04
11643;BME280;5877;50.930;6.918;2023-05-23T15:07:25;101524.03;;;21.64;34.68
11643;BME280;5877;50.930;6.918;2023-05-23T15:12:19;101411.13;;;20.12;35.38
11643;BME280;5877;50.930;6.918;2023-05-23T15:17:11;101428.34;;;19.45;37.54
11643;BME280;5877;50.930;6.918;2023-05-23T15:22:11;101428.63;;;19.49;38.21
11643;BME280;5877;50.930;6.918;2023-05-23T15:27:26;101511.09;;;20.41;37.05
11643;BME280;5877;50.930;6.918;2023-05-23T15:32:20;101513.91;;;20.30;37.06
11643;BME280;5877;50.930;6.918;2023-05-23T15:37:13;101453.47;;;20.08;36.20
11643;BME280;5877;50.930;6.918;2023-05-23T15:42:10;101442.25;;;20.38;36.25
11643;BME280;5877;50.930;6.918;2023-05-23T15:47:03;101489.34;;;20.60;36.81
11643;BME280;5877;50.930;6.918;2023-05-23T15:51:55;101399.09;;;20.41;35.31
11643;BME280;5877;50.930;6.918;2023-05-23T15:56:48;101492.22;;;21.00;34.97
11643;BME280;5877;50.930;6.918;2023-05-23T16:01:41;101460.31;;;19.99;35.97
11643;BME280;5877;50.930;6.918;2023-05-23T16:06:36;101492.19;;;19.62;36.62
11643;BME280;5877;50.930;6.918;2023-05-23T16:11:40;101412.34;;;18.75;37.35
11643;BME280;5877;50.930;6.918;2023-05-23T16:16:37;101496.34;;;19.53;37.25
11643;BME280;5877;50.930;6.918;2023-05-23T16:21:30;101329.59;;;18.55;36.69
11643;BME280;5877;50.930;6.918;2023-05-23T16:26:25;101442.78;;;19.06;37.15
11643;BME280;5877;50.930;6.918;2023-05-23T16:31:26;101465.97;;;18.89;37.26
11643;BME280;5877;50.930;6.918;2023-05-23T16:36:44;101497.72;;;18.95;37.06
11643;BME280;5877;50.930;6.918;2023-05-23T16:41:39;101490.16;;;18.87;37.29
11643;BME280;5877;50.930;6.918;2023-05-23T16:46:32;101484.94;;;18.59;38.61
11643;BME280;5877;50.930;6.918;2023-05-23T16:51:27;101494.22;;;18.06;39.47
11643;BME280;5877;50.930;6.918;2023-05-23T16:56:25;101295.94;;;16.52;40.18
11643;BME280;5877;50.930;6.918;2023-05-23T17:01:24;101501.53;;;17.70;40.55
11643;BME280;5877;50.930;6.918;2023-05-23T17:06:20;101507.03;;;17.80;40.67
11643;BME280;5877;50.930;6.918;2023-05-23T17:11:22;101471.06;;;17.61;40.80
11643;BME280;5877;50.930;6.918;2023-05-23T17:16:17;101448.50;;;17.47;40.91
11643;BME280;5877;50.930;6.918;2023-05-23T17:21:12;101506.50;;;17.95;41.25
11643;BME280;5877;50.930;6.918;2023-05-23T17:26:46;101522.50;;;17.83;41.65
11643;BME280;5877;50.930;6.918;2023-05-23T17:32:15;101528.72;;;17.37;41.99
11643;BME280;5877;50.930;6.918;2023-05-23T17:38:28;101450.84;;;16.68;42.59
11643;BME280;5877;50.930;6.918;2023-05-23T17:43:48;101405.41;;;16.41;42.69
11643;BME280;5877;50.930;6.918;2023-05-23T17:48:51;101536.13;;;17.24;42.52
11643;BME280;5877;50.930;6.918;2023-05-23T17:53:44;101502.13;;;16.97;42.65
11643;BME280;5877;50.930;6.918;2023-05-23T17:58:44;101527.47;;;17.16;42.43
11643;BME280;5877;50.930;6.918;2023-05-23T18:03:39;101535.13;;;16.90;42.65
11643;BME280;5877;50.930;6.918;2023-05-23T18:08:34;101537.56;;;16.49;42.88
11643;BME280;5877;50.930;6.918;2023-05-23T18:13:30;101436.59;;;15.63;43.03
11643;BME280;5877;50.930;6.918;2023-05-23T18:18:22;101542.75;;;16.03;43.63
11643;BME280;5877;50.930;6.918;2023-05-23T18:23:16;101507.81;;;15.64;44.01
11643;BME280;5877;50.930;6.918;2023-05-23T18:28:11;101546.59;;;15.88;44.37
11643;BME280;5877;50.930;6.918;2023-05-23T18:33:10;101548.22;;;15.89;44.48
11643;BME280;5877;50.930;6.918;2023-05-23T18:38:02;101549.91;;;15.84;44.80
11643;BME280;5877;50.930;6.918;2023-05-23T18:42:56;101554.63;;;15.82;45.62
11643;BME280;5877;50.930;6.918;2023-05-23T18:47:50;101493.50;;;15.17;46.36
11643;BME280;5877;50.930;6.918;2023-05-23T18:52:44;101439.78;;;14.61;47.04
11643;BME280;5877;50.930;6.918;2023-05-23T18:57:37;101562.91;;;15.12;47.51
11643;BME280;5877;50.930;6.918;2023-05-23T19:02:32;101469.91;;;14.29;47.79
11643;BME280;5877;50.930;6.918;2023-05-23T19:07:28;101583.97;;;14.76;48.26
11643;BME280;5877;50.930;6.918;2023-05-23T19:12:25;101544.94;;;14.15;48.76
11643;BME280;5877;50.930;6.918;2023-05-23T19:17:18;101544.13;;;14.14;48.65
11643;BME280;5877;50.930;6.918;2023-05-23T19:22:17;101559.28;;;13.87;49.41
11643;BME280;5877;50.930;6.918;2023-05-23T19:27:09;101475.13;;;13.21;50.60
11643;BME280;5877;50.930;6.918;2023-05-23T19:32:04;101623.63;;;13.93;51.38
11643;BME280;5877;50.930;6.918;2023-05-23T19:36:57;101618.59;;;13.78;51.62
11643;BME280;5877;50.930;6.918;2023-05-23T19:41:52;101620.25;;;13.73;51.68
11643;BME280;5877;50.930;6.918;2023-05-23T19:46:47;101601.66;;;13.35;52.30
11643;BME280;5877;50.930;6.918;2023-05-23T19:51:40;101599.44;;;13.18;52.75
11643;BME280;5877;50.930;6.918;2023-05-23T19:56:34;101566.81;;;12.86;52.85
11643;BME280;5877;50.930;6.918;2023-05-23T20:01:28;101635.09;;;13.14;53.30
11643;BME280;5877;50.930;6.918;2023-05-23T20:06:22;101606.53;;;12.78;53.87
11643;BME280;5877;50.930;6.918;2023-05-23T20:11:16;101546.06;;;12.11;54.52
11643;BME280;5877;50.930;6.918;2023-05-23T20:16:10;101656.38;;;12.73;54.21
11643;BME280;5877;50.930;6.918;2023-05-23T20:21:03;101592.69;;;12.30;54.10
11643;BME280;5877;50.930;6.918;2023-05-23T20:25:56;101664.47;;;12.65;54.08
11643;BME280;5877;50.930;6.918;2023-05-23T20:30:52;101567.22;;;11.83;54.59
11643;BME280;5877;50.930;6.918;2023-05-23T20:35:45;101663.91;;;12.22;55.37
11643;BME280;5877;50.930;6.918;2023-05-23T20:40:45;101687.06;;;12.33;55.46
11643;BME280;5877;50.930;6.918;2023-05-23T20:45:43;101689.84;;;12.25;55.59
11643;BME280;5877;50.930;6.918;2023-05-23T20:50:36;101699.94;;;12.15;56.47
11643;BME280;5877;50.930;6.918;2023-05-23T20:55:33;101659.75;;;11.93;55.57
11643;BME280;5877;50.930;6.918;2023-05-23T21:00:30;101708.78;;;12.07;55.74
11643;BME280;5877;50.930;6.918;2023-05-23T21:05:22;101616.13;;;11.43;55.30
11643;BME280;5877;50.930;6.918;2023-05-23T21:10:19;101633.75;;;11.49;55.81
11643;BME280;5877;50.930;6.918;2023-05-23T21:15:11;101649.91;;;11.46;55.56
11643;BME280;5877;50.930;6.918;2023-05-23T21:20:05;101680.53;;;11.60;56.17
11643;BME280;5877;50.930;6.918;2023-05-23T21:25:00;101648.44;;;11.36;56.06
11643;BME280;5877;50.930;6.918;2023-05-23T21:29:55;101653.16;;;11.20;56.41
11643;BME280;5877;50.930;6.918;2023-05-23T21:34:48;101393.00;;;9.37;56.49
11643;BME280;5877;50.930;6.918;2023-05-23T21:39:41;101650.22;;;11.08;56.17
11643;BME280;5877;50.930;6.918;2023-05-23T21:44:43;101581.72;;;10.60;56.31
11643;BME280;5877;50.930;6.918;2023-05-23T21:49:38;101736.97;;;11.36;56.65
11643;BME280;5877;50.930;6.918;2023-05-23T21:54:35;101658.03;;;10.80;56.92
11643;BME280;5877;50.930;6.918;2023-05-23T21:59:27;101540.75;;;10.02;57.22
11643;BME280;5877;50.930;6.918;2023-05-23T22:04:23;101640.28;;;10.61;57.12
11643;BME280;5877;50.930;6.918;2023-05-23T22:09:21;101706.56;;;10.84;57.51
11643;BME280;5877;50.930;6.918;2023-05-23T22:14:18;101610.72;;;10.16;57.77
11643;BME280;5877;50.930;6.918;2023-05-23T22:19:11;101626.94;;;10.20;57.71
11643;BME280;5877;50.930;6.918;2023-05-23T22:24:09;101582.66;;;9.66;58.16
11643;BME280;5877;50.930;6.918;2023-05-23T22:29:01;101728.72;;;10.60;57.94
11643;BME280;5877;50.930;6.918;2023-05-23T22:33:53;101675.22;;;10.25;57.92
11643;BME280;5877;50.930;6.918;2023-05-23T22:38:51;101719.31;;;10.51;58.48
11643;BME280;5877;50.930;6.918;2023-05-23T22:43:45;101713.97;;;10.23;59.63
11643;BME280;5877;50.930;6.918;2023-05-23T22:48:38;101733.22;;;10.30;59.92
11643;BME280;5877;50.930;6.918;2023-05-23T22:53:31;101668.06;;;9.75;59.91
11643;BME280;5877;50.930;6.918;2023-05-23T22:58:23;101738.63;;;10.14;60.28
11643;BME280;5877;50.930;6.918;2023-05-23T23:03:15;101039.47;;;5.69;60.60
11643;BME280;5877;50.930;6.918;2023-05-23T23:08:07;101616.13;;;9.26;60.58
11643;BME280;5877;50.930;6.918;2023-05-23T23:13:01;101731.00;;;9.90;61.07
11643;BME280;5877;50.930;6.918;2023-05-23T23:17:53;101685.78;;;9.58;61.72
11643;BME280;5877;50.930;6.918;2023-05-23T23:22:47;101703.19;;;9.51;61.99
11643;BME280;5877;50.930;6.918;2023-05-23T23:27:40;101669.25;;;9.20;62.29
11643;BME280;5877;50.930;6.918;2023-05-23T23:32:32;101736.09;;;9.54;62.77
11643;BME280;5877;50.930;6.918;2023-05-23T23:37:28;101707.00;;;9.26;63.15
11643;BME280;5877;50.930;6.918;2023-05-23T23:42:20;101674.50;;;8.97;62.82
11643;BME280;5877;50.930;6.918;2023-05-23T23:47:12;101564.03;;;8.25;63.64
11643;BME280;5877;50.930;6.918;2023-05-23T23:52:05;101759.53;;;9.32;63.83
11643;BME280;5877;50.930;6.918;2023-05-23T23:57:00;101641.19;;;8.60;63.93
